sensor_id;sensor_type;location;lat;lon;timestamp;P1;durP1;ratioP1;P2;durP2;ratioP2
56511;SDS011;42408;53.238;5.686;2022-12-31T00:01:47;21.53;;;5.47;;
56511;SDS011;42408;53.238;5.686;2022-12-31T00:04:13;21.17;;;4.57;;
56511;SDS011;42408;53.238;5.686;2022-12-31T00:06:38;24.30;;;5.77;;
56511;SDS011;42408;53.238;5.686;2022-12-31T00:09:05;18.27;;;4.70;;
56511;SDS011;42408;53.238;5.686;2022-12-31T00:13:58;18.98;;;5.43;;
56511;SDS011;42408;53.238;5.686;2022-12-31T00:16:28;19.23;;;4.97;;
56511;SDS011;42408;53.238;5.686;2022-12-31T00:18:56;27.02;;;5.35;;
56511;SDS011;42408;53.238;5.686;2022-12-31T00:21:23;22.17;;;5.65;;
56511;SDS011;42408;53.238;5.686;2022-12-31T00:23:50;24.33;;;5.18;;
56511;SDS011;42408;53.238;5.686;2022-12-31T00:26:18;22.77;;;6.07;;
56511;SDS011;42408;53.238;5.686;2022-12-31T00:28:45;21.20;;;5.85;;
56511;SDS011;42408;53.238;5.686;2022-12-31T00:31:13;20.35;;;5.53;;
56511;SDS011;42408;53.238;5.686;2022-12-31T00:33:41;23.65;;;6.05;;
56511;SDS011;42408;53.238;5.686;2022-12-31T00:38:36;19.20;;;5.68;;
56511;SDS011;42408;53.238;5.686;2022-12-31T00:41:03;24.52;;;6.13;;
56511;SDS011;42408;53.238;5.686;2022-12-31T00:43:30;23.33;;;6.65;;
56511;SDS011;42408;53.238;5.686;2022-12-31T00:45:56;26.02;;;5.82;;
56511;SDS011;42408;53.238;5.686;2022-12-31T00:48:21;25.67;;;6.00;;
56511;SDS011;42408;53.238;5.686;2022-12-31T00:50:47;21.37;;;5.33;;
56511;SDS011;42408;53.238;5.686;2022-12-31T00:53:13;23.03;;;5.87;;
56511;SDS011;42408;53.238;5.686;2022-12-31T00:55:39;26.33;;;6.17;;
56511;SDS011;42408;53.238;5.686;2022-12-31T00:58:04;28.07;;;6.23;;
56511;SDS011;42408;53.238;5.686;2022-12-31T01:00:30;24.53;;;5.87;;
56511;SDS011;42408;53.238;5.686;2022-12-31T01:02:55;29.43;;;5.60;;
56511;SDS011;42408;53.238;5.686;2022-12-31T01:05:21;26.13;;;7.90;;
56511;SDS011;42408;53.238;5.686;2022-12-31T01:07:47;23.57;;;6.47;;
56511;SDS011;42408;53.238;5.686;2022-12-31T01:10:12;30.63;;;6.53;;
56511;SDS011;42408;53.238;5.686;2022-12-31T01:12:58;25.95;;;6.18;;
56511;SDS011;42408;53.238;5.686;2022-12-31T01:15:24;20.70;;;5.97;;
56511;SDS011;42408;53.238;5.686;2022-12-31T01:17:49;28.07;;;6.47;;
56511;SDS011;42408;53.238;5.686;2022-12-31T01:20:15;22.63;;;6.30;;
56511;SDS011;42408;53.238;5.686;2022-12-31T01:22:41;21.30;;;5.87;;
56511;SDS011;42408;53.238;5.686;2022-12-31T01:25:06;66.83;;;36.27;;
56511;SDS011;42408;53.238;5.686;2022-12-31T01:27:32;18.97;;;5.47;;
56511;SDS011;42408;53.238;5.686;2022-12-31T01:29:58;28.03;;;6.47;;
56511;SDS011;42408;53.238;5.686;2022-12-31T01:32:23;28.33;;;6.53;;
56511;SDS011;42408;53.238;5.686;2022-12-31T01:34:49;23.57;;;5.53;;
56511;SDS011;42408;53.238;5.686;2022-12-31T01:37:15;19.90;;;5.90;;
56511;SDS011;42408;53.238;5.686;2022-12-31T01:39:40;20.83;;;6.03;;
56511;SDS011;42408;53.238;5.686;2022-12-31T01:42:08;24.53;;;5.63;;
56511;SDS011;42408;53.238;5.686;2022-12-31T01:47:04;17.98;;;4.65;;
56511;SDS011;42408;53.238;5.686;2022-12-31T01:49:47;19.35;;;5.38;;
56511;SDS011;42408;53.238;5.686;2022-12-31T01:52:31;24.92;;;5.00;;
56511;SDS011;42408;53.238;5.686;2022-12-31T01:55:08;20.67;;;5.28;;
56511;SDS011;42408;53.238;5.686;2022-12-31T01:57:34;16.73;;;5.00;;
56511;SDS011;42408;53.238;5.686;2022-12-31T02:00:01;18.45;;;5.22;;
56511;SDS011;42408;53.238;5.686;2022-12-31T02:02:29;18.02;;;4.55;;
56511;SDS011;42408;53.238;5.686;2022-12-31T02:04:54;18.47;;;5.23;;
56511;SDS011;42408;53.238;5.686;2022-12-31T02:07:22;23.20;;;5.18;;
56511;SDS011;42408;53.238;5.686;2022-12-31T02:09:48;15.43;;;5.53;;
56511;SDS011;42408;53.238;5.686;2022-12-31T02:12:14;20.87;;;5.60;;
56511;SDS011;42408;53.238;5.686;2022-12-31T02:14:43;20.00;;;5.40;;
56511;SDS011;42408;53.238;5.686;2022-12-31T02:23:30;17.88;;;4.32;;
56511;SDS011;42408;53.238;5.686;2022-12-31T02:31:20;16.38;;;4.60;;
56511;SDS011;42408;53.238;5.686;2022-12-31T02:33:57;19.85;;;5.40;;
56511;SDS011;42408;53.238;5.686;2022-12-31T02:36:31;17.40;;;4.40;;
56511;SDS011;42408;53.238;5.686;2022-12-31T02:39:01;17.05;;;4.07;;
56511;SDS011;42408;53.238;5.686;2022-12-31T02:41:29;23.73;;;4.50;;
56511;SDS011;42408;53.238;5.686;2022-12-31T02:51:59;19.17;;;4.03;;
56511;SDS011;42408;53.238;5.686;2022-12-31T02:54:35;14.83;;;4.33;;
56511;SDS011;42408;53.238;5.686;2022-12-31T02:57:27;15.05;;;4.32;;
56511;SDS011;42408;53.238;5.686;2022-12-31T03:00:15;15.82;;;4.18;;
56511;SDS011;42408;53.238;5.686;2022-12-31T03:03:00;15.55;;;3.88;;
56511;SDS011;42408;53.238;5.686;2022-12-31T03:05:28;18.38;;;4.80;;
56511;SDS011;42408;53.238;5.686;2022-12-31T03:07:56;15.98;;;3.75;;
56511;SDS011;42408;53.238;5.686;2022-12-31T03:10:22;17.03;;;4.30;;
56511;SDS011;42408;53.238;5.686;2022-12-31T03:12:47;15.33;;;3.67;;
56511;SDS011;42408;53.238;5.686;2022-12-31T03:15:18;21.80;;;3.97;;
56511;SDS011;42408;53.238;5.686;2022-12-31T03:20:14;16.40;;;4.00;;
56511;SDS011;42408;53.238;5.686;2022-12-31T03:22:58;16.33;;;3.70;;
56511;SDS011;42408;53.238;5.686;2022-12-31T03:25:24;14.80;;;4.17;;
56511;SDS011;42408;53.238;5.686;2022-12-31T03:28:00;16.17;;;3.50;;
56511;SDS011;42408;53.238;5.686;2022-12-31T03:30:27;18.15;;;4.00;;
56511;SDS011;42408;53.238;5.686;2022-12-31T03:32:53;16.73;;;4.65;;
56511;SDS011;42408;53.238;5.686;2022-12-31T03:35:22;18.20;;;4.95;;
56511;SDS011;42408;53.238;5.686;2022-12-31T03:37:50;18.13;;;4.30;;
56511;SDS011;42408;53.238;5.686;2022-12-31T03:40:17;13.38;;;2.95;;
56511;SDS011;42408;53.238;5.686;2022-12-31T03:42:43;14.20;;;3.65;;
56511;SDS011;42408;53.238;5.686;2022-12-31T03:45:09;16.50;;;3.20;;
56511;SDS011;42408;53.238;5.686;2022-12-31T03:47:36;13.25;;;3.53;;
56511;SDS011;42408;53.238;5.686;2022-12-31T03:50:02;17.10;;;3.70;;
56511;SDS011;42408;53.238;5.686;2022-12-31T03:52:28;9.30;;;2.92;;
56511;SDS011;42408;53.238;5.686;2022-12-31T03:54:54;18.77;;;3.37;;
56511;SDS011;42408;53.238;5.686;2022-12-31T03:57:20;12.30;;;3.03;;
56511;SDS011;42408;53.238;5.686;2022-12-31T03:59:47;14.60;;;3.42;;
56511;SDS011;42408;53.238;5.686;2022-12-31T04:02:13;11.77;;;3.33;;
56511;SDS011;42408;53.238;5.686;2022-12-31T04:04:38;16.17;;;3.83;;
56511;SDS011;42408;53.238;5.686;2022-12-31T04:07:04;21.00;;;4.07;;
56511;SDS011;42408;53.238;5.686;2022-12-31T04:09:30;14.30;;;3.57;;
56511;SDS011;42408;53.238;5.686;2022-12-31T04:11:55;12.70;;;3.27;;
56511;SDS011;42408;53.238;5.686;2022-12-31T04:14:21;14.57;;;3.87;;
56511;SDS011;42408;53.238;5.686;2022-12-31T04:16:46;10.53;;;2.80;;
56511;SDS011;42408;53.238;5.686;2022-12-31T04:19:12;15.07;;;3.60;;
56511;SDS011;42408;53.238;5.686;2022-12-31T04:21:38;13.00;;;3.33;;
56511;SDS011;42408;53.238;5.686;2022-12-31T04:24:04;12.37;;;3.10;;
56511;SDS011;42408;53.238;5.686;2022-12-31T04:26:30;14.80;;;4.00;;
56511;SDS011;42408;53.238;5.686;2022-12-31T04:28:56;16.20;;;3.23;;
56511;SDS011;42408;53.238;5.686;2022-12-31T04:31:22;12.93;;;3.47;;
56511;SDS011;42408;53.238;5.686;2022-12-31T04:33:47;12.53;;;2.97;;
56511;SDS011;42408;53.238;5.686;2022-12-31T04:36:13;10.17;;;3.10;;
56511;SDS011;42408;53.238;5.686;2022-12-31T04:38:39;13.17;;;2.90;;
56511;SDS011;42408;53.238;5.686;2022-12-31T04:41:04;10.10;;;2.93;;
56511;SDS011;42408;53.238;5.686;2022-12-31T04:43:43;12.13;;;2.90;;
56511;SDS011;42408;53.238;5.686;2022-12-31T04:46:10;13.40;;;3.40;;
56511;SDS011;42408;53.238;5.686;2022-12-31T04:48:37;12.25;;;3.60;;
56511;SDS011;42408;53.238;5.686;2022-12-31T04:51:03;11.70;;;2.93;;
56511;SDS011;42408;53.238;5.686;2022-12-31T04:53:28;13.23;;;3.03;;
56511;SDS011;42408;53.238;5.686;2022-12-31T04:55:55;11.73;;;3.03;;
56511;SDS011;42408;53.238;5.686;2022-12-31T04:58:20;16.63;;;3.27;;
56511;SDS011;42408;53.238;5.686;2022-12-31T05:00:47;18.00;;;3.15;;
56511;SDS011;42408;53.238;5.686;2022-12-31T05:03:15;12.38;;;3.13;;
56511;SDS011;42408;53.238;5.686;2022-12-31T05:08:10;10.27;;;3.15;;
56511;SDS011;42408;53.238;5.686;2022-12-31T05:10:40;9.88;;;3.17;;
56511;SDS011;42408;53.238;5.686;2022-12-31T05:13:06;11.32;;;3.65;;
56511;SDS011;42408;53.238;5.686;2022-12-31T05:15:32;12.00;;;3.17;;
56511;SDS011;42408;53.238;5.686;2022-12-31T05:17:58;11.27;;;2.97;;
56511;SDS011;42408;53.238;5.686;2022-12-31T05:20:23;12.03;;;3.27;;
56511;SDS011;42408;53.238;5.686;2022-12-31T05:22:49;13.53;;;3.37;;
56511;SDS011;42408;53.238;5.686;2022-12-31T05:25:14;13.30;;;3.40;;
56511;SDS011;42408;53.238;5.686;2022-12-31T05:27:40;18.63;;;3.83;;
56511;SDS011;42408;53.238;5.686;2022-12-31T05:30:06;14.83;;;4.43;;
56511;SDS011;42408;53.238;5.686;2022-12-31T05:32:32;14.70;;;4.78;;
56511;SDS011;42408;53.238;5.686;2022-12-31T05:34:58;12.40;;;5.57;;
56511;SDS011;42408;53.238;5.686;2022-12-31T05:37:25;14.03;;;6.50;;
56511;SDS011;42408;53.238;5.686;2022-12-31T05:39:52;23.83;;;6.97;;
56511;SDS011;42408;53.238;5.686;2022-12-31T05:42:18;19.20;;;7.20;;
56511;SDS011;42408;53.238;5.686;2022-12-31T05:44:43;16.53;;;6.83;;
56511;SDS011;42408;53.238;5.686;2022-12-31T05:47:09;13.80;;;5.27;;
56511;SDS011;42408;53.238;5.686;2022-12-31T05:49:34;12.27;;;4.30;;
56511;SDS011;42408;53.238;5.686;2022-12-31T05:52:00;8.40;;;3.40;;
56511;SDS011;42408;53.238;5.686;2022-12-31T05:54:26;12.93;;;3.30;;
56511;SDS011;42408;53.238;5.686;2022-12-31T05:56:52;11.87;;;2.77;;
56511;SDS011;42408;53.238;5.686;2022-12-31T05:59:17;9.33;;;2.63;;
56511;SDS011;42408;53.238;5.686;2022-12-31T06:01:43;9.13;;;2.60;;
56511;SDS011;42408;53.238;5.686;2022-12-31T06:04:09;9.20;;;2.60;;
56511;SDS011;42408;53.238;5.686;2022-12-31T06:06:34;10.07;;;2.87;;
56511;SDS011;42408;53.238;5.686;2022-12-31T06:09:00;7.70;;;3.07;;
56511;SDS011;42408;53.238;5.686;2022-12-31T06:11:26;14.27;;;3.93;;
56511;SDS011;42408;53.238;5.686;2022-12-31T06:13:52;11.23;;;4.20;;
56511;SDS011;42408;53.238;5.686;2022-12-31T06:16:17;18.67;;;6.57;;
56511;SDS011;42408;53.238;5.686;2022-12-31T06:18:45;21.60;;;8.63;;
56511;SDS011;42408;53.238;5.686;2022-12-31T06:21:11;15.55;;;8.82;;
56511;SDS011;42408;53.238;5.686;2022-12-31T06:23:39;23.30;;;11.63;;
56511;SDS011;42408;53.238;5.686;2022-12-31T06:26:05;17.15;;;10.88;;
56511;SDS011;42408;53.238;5.686;2022-12-31T06:28:32;18.70;;;11.70;;
56511;SDS011;42408;53.238;5.686;2022-12-31T06:31:01;16.33;;;9.93;;
56511;SDS011;42408;53.238;5.686;2022-12-31T06:33:29;14.30;;;9.68;;
56511;SDS011;42408;53.238;5.686;2022-12-31T06:35:59;15.75;;;9.82;;
56511;SDS011;42408;53.238;5.686;2022-12-31T06:38:26;15.30;;;9.40;;
56511;SDS011;42408;53.238;5.686;2022-12-31T06:40:53;15.35;;;9.10;;
56511;SDS011;42408;53.238;5.686;2022-12-31T06:43:19;12.75;;;7.80;;
56511;SDS011;42408;53.238;5.686;2022-12-31T06:45:45;13.38;;;8.25;;
56511;SDS011;42408;53.238;5.686;2022-12-31T06:48:11;15.63;;;7.60;;
56511;SDS011;42408;53.238;5.686;2022-12-31T06:50:37;13.13;;;7.47;;
56511;SDS011;42408;53.238;5.686;2022-12-31T06:53:03;13.97;;;7.77;;
56511;SDS011;42408;53.238;5.686;2022-12-31T06:55:29;14.07;;;7.63;;
56511;SDS011;42408;53.238;5.686;2022-12-31T06:57:55;19.60;;;7.28;;
56511;SDS011;42408;53.238;5.686;2022-12-31T07:00:21;14.20;;;6.10;;
56511;SDS011;42408;53.238;5.686;2022-12-31T07:10:52;11.60;;;4.55;;
56511;SDS011;42408;53.238;5.686;2022-12-31T07:20:58;9.30;;;3.45;;
56511;SDS011;42408;53.238;5.686;2022-12-31T07:23:24;8.67;;;3.33;;
56511;SDS011;42408;53.238;5.686;2022-12-31T07:25:54;10.93;;;4.07;;
56511;SDS011;42408;53.238;5.686;2022-12-31T07:34:04;8.30;;;5.00;;
56511;SDS011;42408;53.238;5.686;2022-12-31T07:38:11;9.13;;;5.95;;
56511;SDS011;42408;53.238;5.686;2022-12-31T07:40:35;10.18;;;6.47;;
56511;SDS011;42408;53.238;5.686;2022-12-31T07:43:14;12.52;;;9.23;;
56511;SDS011;42408;53.238;5.686;2022-12-31T07:45:59;12.50;;;8.85;;
56511;SDS011;42408;53.238;5.686;2022-12-31T07:48:27;12.02;;;8.60;;
56511;SDS011;42408;53.238;5.686;2022-12-31T07:50:54;13.98;;;8.23;;
56511;SDS011;42408;53.238;5.686;2022-12-31T07:53:21;12.32;;;7.90;;
56511;SDS011;42408;53.238;5.686;2022-12-31T07:56:01;10.45;;;7.10;;
56511;SDS011;42408;53.238;5.686;2022-12-31T08:01:04;10.30;;;6.18;;
56511;SDS011;42408;53.238;5.686;2022-12-31T08:03:40;10.43;;;6.97;;
56511;SDS011;42408;53.238;5.686;2022-12-31T08:06:28;11.75;;;7.45;;
56511;SDS011;42408;53.238;5.686;2022-12-31T08:09:02;9.93;;;7.03;;
56511;SDS011;42408;53.238;5.686;2022-12-31T08:11:40;10.75;;;6.75;;
56511;SDS011;42408;53.238;5.686;2022-12-31T08:14:16;10.05;;;6.43;;
56511;SDS011;42408;53.238;5.686;2022-12-31T08:19:13;9.02;;;5.38;;
56511;SDS011;42408;53.238;5.686;2022-12-31T08:21:51;10.05;;;6.63;;
56511;SDS011;42408;53.238;5.686;2022-12-31T08:35:27;12.45;;;6.38;;
56511;SDS011;42408;53.238;5.686;2022-12-31T08:46:24;12.00;;;8.10;;
56511;SDS011;42408;53.238;5.686;2022-12-31T08:49:01;16.95;;;11.88;;
56511;SDS011;42408;53.238;5.686;2022-12-31T08:51:27;14.70;;;8.70;;
56511;SDS011;42408;53.238;5.686;2022-12-31T08:53:53;13.05;;;8.15;;
56511;SDS011;42408;53.238;5.686;2022-12-31T08:56:25;15.03;;;9.20;;
56511;SDS011;42408;53.238;5.686;2022-12-31T08:59:24;14.85;;;9.00;;
56511;SDS011;42408;53.238;5.686;2022-12-31T09:02:38;13.77;;;8.10;;
56511;SDS011;42408;53.238;5.686;2022-12-31T09:10:52;13.52;;;6.25;;
56511;SDS011;42408;53.238;5.686;2022-12-31T09:16:06;12.65;;;4.50;;
56511;SDS011;42408;53.238;5.686;2022-12-31T09:18:55;11.70;;;3.83;;
56511;SDS011;42408;53.238;5.686;2022-12-31T09:21:21;13.97;;;4.53;;
56511;SDS011;42408;53.238;5.686;2022-12-31T09:23:46;13.10;;;3.97;;
56511;SDS011;42408;53.238;5.686;2022-12-31T09:31:44;11.35;;;3.80;;
56511;SDS011;42408;53.238;5.686;2022-12-31T09:36:50;12.68;;;3.40;;
56511;SDS011;42408;53.238;5.686;2022-12-31T09:45:01;9.82;;;3.30;;
56511;SDS011;42408;53.238;5.686;2022-12-31T09:50:50;8.88;;;2.83;;
56511;SDS011;42408;53.238;5.686;2022-12-31T09:55:57;12.00;;;2.92;;
56511;SDS011;42408;53.238;5.686;2022-12-31T10:07:23;10.95;;;3.33;;
56511;SDS011;42408;53.238;5.686;2022-12-31T10:10:13;13.77;;;3.90;;
56511;SDS011;42408;53.238;5.686;2022-12-31T10:12:53;13.57;;;3.42;;
56511;SDS011;42408;53.238;5.686;2022-12-31T10:15:34;14.38;;;3.88;;
56511;SDS011;42408;53.238;5.686;2022-12-31T10:18:43;12.65;;;3.20;;
56511;SDS011;42408;53.238;5.686;2022-12-31T10:21:23;18.13;;;3.85;;
56511;SDS011;42408;53.238;5.686;2022-12-31T10:33:02;13.82;;;3.33;;
56511;SDS011;42408;53.238;5.686;2022-12-31T10:35:41;17.52;;;3.90;;
56511;SDS011;42408;53.238;5.686;2022-12-31T10:52:00;10.63;;;3.30;;
56511;SDS011;42408;53.238;5.686;2022-12-31T10:55:07;15.98;;;4.22;;
56511;SDS011;42408;53.238;5.686;2022-12-31T11:00:33;15.82;;;3.50;;
56511;SDS011;42408;53.238;5.686;2022-12-31T11:03:42;14.93;;;3.43;;
56511;SDS011;42408;53.238;5.686;2022-12-31T11:16:00;18.98;;;3.78;;
56511;SDS011;42408;53.238;5.686;2022-12-31T11:40:55;12.97;;;4.30;;
56511;SDS011;42408;53.238;5.686;2022-12-31T11:54:41;14.38;;;4.50;;
56511;SDS011;42408;53.238;5.686;2022-12-31T11:59:54;14.63;;;3.97;;
56511;SDS011;42408;53.238;5.686;2022-12-31T12:02:26;12.90;;;4.00;;
56511;SDS011;42408;53.238;5.686;2022-12-31T12:04:53;13.95;;;3.83;;
56511;SDS011;42408;53.238;5.686;2022-12-31T12:07:22;15.15;;;4.10;;
56511;SDS011;42408;53.238;5.686;2022-12-31T12:09:48;17.13;;;4.63;;
56511;SDS011;42408;53.238;5.686;2022-12-31T12:12:16;18.27;;;4.68;;
56511;SDS011;42408;53.238;5.686;2022-12-31T12:14:43;12.83;;;3.40;;
56511;SDS011;42408;53.238;5.686;2022-12-31T12:17:18;14.88;;;4.25;;
56511;SDS011;42408;53.238;5.686;2022-12-31T12:19:58;16.00;;;4.65;;
56511;SDS011;42408;53.238;5.686;2022-12-31T12:22:26;15.15;;;4.30;;
56511;SDS011;42408;53.238;5.686;2022-12-31T12:24:54;18.48;;;4.03;;
56511;SDS011;42408;53.238;5.686;2022-12-31T12:27:23;21.02;;;5.30;;
56511;SDS011;42408;53.238;5.686;2022-12-31T12:29:53;16.98;;;4.93;;
56511;SDS011;42408;53.238;5.686;2022-12-31T12:32:23;21.27;;;7.53;;
56511;SDS011;42408;53.238;5.686;2022-12-31T12:34:51;14.98;;;5.95;;
56511;SDS011;42408;53.238;5.686;2022-12-31T12:40:03;21.30;;;5.20;;
56511;SDS011;42408;53.238;5.686;2022-12-31T12:42:33;15.95;;;4.68;;
56511;SDS011;42408;53.238;5.686;2022-12-31T12:45:03;19.95;;;5.35;;
56511;SDS011;42408;53.238;5.686;2022-12-31T12:47:32;16.83;;;4.13;;
56511;SDS011;42408;53.238;5.686;2022-12-31T12:49:58;22.30;;;5.47;;
56511;SDS011;42408;53.238;5.686;2022-12-31T12:55:16;14.55;;;5.28;;
56511;SDS011;42408;53.238;5.686;2022-12-31T13:14:14;17.23;;;4.65;;
56511;SDS011;42408;53.238;5.686;2022-12-31T13:16:43;17.73;;;4.40;;
56511;SDS011;42408;53.238;5.686;2022-12-31T13:22:34;19.67;;;4.72;;
56511;SDS011;42408;53.238;5.686;2022-12-31T13:25:09;22.02;;;4.53;;
56511;SDS011;42408;53.238;5.686;2022-12-31T13:27:41;17.98;;;4.97;;
56511;SDS011;42408;53.238;5.686;2022-12-31T13:30:13;21.60;;;5.22;;
56511;SDS011;42408;53.238;5.686;2022-12-31T13:33:00;19.98;;;5.93;;
56511;SDS011;42408;53.238;5.686;2022-12-31T13:35:53;17.83;;;4.65;;
56511;SDS011;42408;53.238;5.686;2022-12-31T13:38:22;20.98;;;7.68;;
56511;SDS011;42408;53.238;5.686;2022-12-31T13:43:24;20.42;;;6.40;;
56511;SDS011;42408;53.238;5.686;2022-12-31T13:48:45;14.00;;;4.95;;
56511;SDS011;42408;53.238;5.686;2022-12-31T13:51:40;14.13;;;4.28;;
56511;SDS011;42408;53.238;5.686;2022-12-31T13:57:22;16.30;;;3.83;;
56511;SDS011;42408;53.238;5.686;2022-12-31T14:00:08;12.50;;;3.47;;
56511;SDS011;42408;53.238;5.686;2022-12-31T14:02:46;9.45;;;2.42;;
56511;SDS011;42408;53.238;5.686;2022-12-31T14:05:16;8.85;;;2.17;;
56511;SDS011;42408;53.238;5.686;2022-12-31T14:07:53;8.80;;;2.83;;
56511;SDS011;42408;53.238;5.686;2022-12-31T14:10:48;16.00;;;3.22;;
56511;SDS011;42408;53.238;5.686;2022-12-31T14:16:20;13.40;;;3.80;;
56511;SDS011;42408;53.238;5.686;2022-12-31T14:21:42;16.55;;;3.95;;
56511;SDS011;42408;53.238;5.686;2022-12-31T14:27:21;9.10;;;3.30;;
56511;SDS011;42408;53.238;5.686;2022-12-31T14:29:58;10.90;;;4.20;;
56511;SDS011;42408;53.238;5.686;2022-12-31T14:38:07;8.40;;;3.13;;
56511;SDS011;42408;53.238;5.686;2022-12-31T14:40:56;8.40;;;2.95;;
56511;SDS011;42408;53.238;5.686;2022-12-31T14:46:36;8.75;;;4.40;;
56511;SDS011;42408;53.238;5.686;2022-12-31T14:54:40;9.50;;;3.50;;
56511;SDS011;42408;53.238;5.686;2022-12-31T14:57:10;6.25;;;3.25;;
56511;SDS011;42408;53.238;5.686;2022-12-31T14:59:56;5.53;;;2.10;;
56511;SDS011;42408;53.238;5.686;2022-12-31T15:02:27;5.47;;;1.90;;
56511;SDS011;42408;53.238;5.686;2022-12-31T15:05:04;7.45;;;2.00;;
56511;SDS011;42408;53.238;5.686;2022-12-31T15:10:18;6.15;;;1.90;;
56511;SDS011;42408;53.238;5.686;2022-12-31T15:13:08;6.93;;;1.90;;
56511;SDS011;42408;53.238;5.686;2022-12-31T15:18:48;6.95;;;2.10;;
56511;SDS011;42408;53.238;5.686;2022-12-31T15:24:25;8.02;;;1.73;;
56511;SDS011;42408;53.238;5.686;2022-12-31T15:26:55;6.43;;;1.80;;
56511;SDS011;42408;53.238;5.686;2022-12-31T15:29:33;5.78;;;2.10;;
56511;SDS011;42408;53.238;5.686;2022-12-31T15:32:06;4.00;;;1.70;;
56511;SDS011;42408;53.238;5.686;2022-12-31T15:34:44;2.90;;;1.50;;
56511;SDS011;42408;53.238;5.686;2022-12-31T15:40:16;5.68;;;1.50;;
56511;SDS011;42408;53.238;5.686;2022-12-31T15:42:45;4.25;;;2.00;;
56511;SDS011;42408;53.238;5.686;2022-12-31T15:45:21;5.43;;;2.00;;
56511;SDS011;42408;53.238;5.686;2022-12-31T15:47:54;9.55;;;3.15;;
56511;SDS011;42408;53.238;5.686;2022-12-31T15:50:22;11.65;;;3.70;;
56511;SDS011;42408;53.238;5.686;2022-12-31T15:52:53;15.35;;;4.15;;
56511;SDS011;42408;53.238;5.686;2022-12-31T15:58:06;14.38;;;5.05;;
56511;SDS011;42408;53.238;5.686;2022-12-31T16:00:50;14.95;;;4.53;;
56511;SDS011;42408;53.238;5.686;2022-12-31T16:03:57;17.35;;;5.28;;
56511;SDS011;42408;53.238;5.686;2022-12-31T16:06:28;17.58;;;6.00;;
56511;SDS011;42408;53.238;5.686;2022-12-31T16:08:55;17.15;;;6.28;;
56511;SDS011;42408;53.238;5.686;2022-12-31T16:11:21;19.88;;;5.50;;
56511;SDS011;42408;53.238;5.686;2022-12-31T16:18:51;21.38;;;6.75;;
56511;SDS011;42408;53.238;5.686;2022-12-31T16:23:58;18.27;;;6.80;;
56511;SDS011;42408;53.238;5.686;2022-12-31T16:26:29;22.48;;;6.10;;
56511;SDS011;42408;53.238;5.686;2022-12-31T16:28:58;19.58;;;6.40;;
56511;SDS011;42408;53.238;5.686;2022-12-31T16:31:24;16.38;;;6.05;;
56511;SDS011;42408;53.238;5.686;2022-12-31T16:34:01;17.38;;;5.30;;
56511;SDS011;42408;53.238;5.686;2022-12-31T16:36:31;17.13;;;5.82;;
56511;SDS011;42408;53.238;5.686;2022-12-31T16:44:42;17.85;;;6.05;;
56511;SDS011;42408;53.238;5.686;2022-12-31T16:47:07;16.67;;;5.60;;
56511;SDS011;42408;53.238;5.686;2022-12-31T16:49:39;18.85;;;5.63;;
56511;SDS011;42408;53.238;5.686;2022-12-31T16:52:07;22.48;;;5.82;;
56511;SDS011;42408;53.238;5.686;2022-12-31T16:55:06;22.52;;;6.68;;
56511;SDS011;42408;53.238;5.686;2022-12-31T16:57:33;21.00;;;5.72;;
56511;SDS011;42408;53.238;5.686;2022-12-31T17:00:00;17.27;;;5.93;;
56511;SDS011;42408;53.238;5.686;2022-12-31T17:02:32;24.23;;;5.63;;
56511;SDS011;42408;53.238;5.686;2022-12-31T17:05:02;17.45;;;5.53;;
56511;SDS011;42408;53.238;5.686;2022-12-31T17:12:32;22.50;;;7.45;;
56511;SDS011;42408;53.238;5.686;2022-12-31T17:15:00;15.50;;;5.95;;
56511;SDS011;42408;53.238;5.686;2022-12-31T17:17:28;17.55;;;5.90;;
56511;SDS011;42408;53.238;5.686;2022-12-31T17:20:06;16.58;;;5.45;;
56511;SDS011;42408;53.238;5.686;2022-12-31T17:22:39;15.82;;;6.15;;
56511;SDS011;42408;53.238;5.686;2022-12-31T17:25:29;18.33;;;6.45;;
56511;SDS011;42408;53.238;5.686;2022-12-31T17:35:36;18.55;;;5.28;;
56511;SDS011;42408;53.238;5.686;2022-12-31T17:40:44;27.58;;;14.55;;
56511;SDS011;42408;53.238;5.686;2022-12-31T17:43:11;21.58;;;7.05;;
56511;SDS011;42408;53.238;5.686;2022-12-31T17:45:37;16.25;;;6.50;;
56511;SDS011;42408;53.238;5.686;2022-12-31T17:48:05;22.60;;;6.70;;
56511;SDS011;42408;53.238;5.686;2022-12-31T17:50:31;13.33;;;6.13;;
56511;SDS011;42408;53.238;5.686;2022-12-31T17:53:04;13.87;;;6.10;;
56511;SDS011;42408;53.238;5.686;2022-12-31T17:55:35;16.42;;;7.45;;
56511;SDS011;42408;53.238;5.686;2022-12-31T17:58:02;17.95;;;7.57;;
56511;SDS011;42408;53.238;5.686;2022-12-31T18:00:29;15.75;;;8.15;;
56511;SDS011;42408;53.238;5.686;2022-12-31T18:02:57;13.88;;;8.20;;
56511;SDS011;42408;53.238;5.686;2022-12-31T18:05:23;18.38;;;8.25;;
56511;SDS011;42408;53.238;5.686;2022-12-31T18:07:49;17.25;;;9.85;;
56511;SDS011;42408;53.238;5.686;2022-12-31T18:10:16;14.90;;;8.80;;
56511;SDS011;42408;53.238;5.686;2022-12-31T18:12:43;22.60;;;11.10;;
56511;SDS011;42408;53.238;5.686;2022-12-31T18:15:20;23.52;;;10.85;;
56511;SDS011;42408;53.238;5.686;2022-12-31T18:17:47;20.25;;;11.98;;
56511;SDS011;42408;53.238;5.686;2022-12-31T18:20:13;18.30;;;10.40;;
56511;SDS011;42408;53.238;5.686;2022-12-31T18:22:39;20.60;;;10.60;;
56511;SDS011;42408;53.238;5.686;2022-12-31T18:25:06;17.25;;;11.15;;
56511;SDS011;42408;53.238;5.686;2022-12-31T18:27:35;19.10;;;10.60;;
56511;SDS011;42408;53.238;5.686;2022-12-31T18:30:01;17.53;;;9.83;;
56511;SDS011;42408;53.238;5.686;2022-12-31T18:32:27;30.67;;;21.00;;
56511;SDS011;42408;53.238;5.686;2022-12-31T18:34:55;25.33;;;15.75;;
56511;SDS011;42408;53.238;5.686;2022-12-31T18:37:21;23.13;;;16.07;;
56511;SDS011;42408;53.238;5.686;2022-12-31T18:39:47;26.23;;;15.40;;
56511;SDS011;42408;53.238;5.686;2022-12-31T18:42:13;22.00;;;13.43;;
56511;SDS011;42408;53.238;5.686;2022-12-31T18:44:41;24.27;;;12.27;;
56511;SDS011;42408;53.238;5.686;2022-12-31T18:47:18;27.38;;;12.90;;
56511;SDS011;42408;53.238;5.686;2022-12-31T18:49:47;24.55;;;13.75;;
56511;SDS011;42408;53.238;5.686;2022-12-31T18:52:16;27.03;;;15.17;;
56511;SDS011;42408;53.238;5.686;2022-12-31T18:54:44;36.85;;;23.85;;
56511;SDS011;42408;53.238;5.686;2022-12-31T18:57:10;26.90;;;14.02;;
56511;SDS011;42408;53.238;5.686;2022-12-31T18:59:37;25.02;;;14.85;;
56511;SDS011;42408;53.238;5.686;2022-12-31T19:02:03;26.30;;;13.03;;
56511;SDS011;42408;53.238;5.686;2022-12-31T19:04:29;17.20;;;9.70;;
56511;SDS011;42408;53.238;5.686;2022-12-31T19:06:55;20.23;;;8.83;;
56511;SDS011;42408;53.238;5.686;2022-12-31T19:09:21;15.53;;;8.03;;
56511;SDS011;42408;53.238;5.686;2022-12-31T19:11:47;19.52;;;9.70;;
56511;SDS011;42408;53.238;5.686;2022-12-31T19:14:16;19.67;;;8.07;;
56511;SDS011;42408;53.238;5.686;2022-12-31T19:16:45;18.83;;;9.82;;
56511;SDS011;42408;53.238;5.686;2022-12-31T19:19:12;18.60;;;8.48;;
56511;SDS011;42408;53.238;5.686;2022-12-31T19:21:38;17.80;;;8.10;;
56511;SDS011;42408;53.238;5.686;2022-12-31T19:24:17;17.85;;;7.93;;
56511;SDS011;42408;53.238;5.686;2022-12-31T19:26:44;14.40;;;7.55;;
56511;SDS011;42408;53.238;5.686;2022-12-31T19:29:14;18.35;;;8.13;;
56511;SDS011;42408;53.238;5.686;2022-12-31T19:31:45;19.17;;;7.53;;
56511;SDS011;42408;53.238;5.686;2022-12-31T19:34:10;19.10;;;7.97;;
56511;SDS011;42408;53.238;5.686;2022-12-31T19:36:36;16.67;;;7.87;;
56511;SDS011;42408;53.238;5.686;2022-12-31T19:39:03;20.13;;;9.60;;
56511;SDS011;42408;53.238;5.686;2022-12-31T19:41:30;17.73;;;8.20;;
56511;SDS011;42408;53.238;5.686;2022-12-31T19:43:56;17.07;;;8.80;;